Ipaba, Brazil
Current Conditions -  °F | °C
As of 8:00 AM on Monday 22 Dec 2014 (Local Time) from SBLS Reporting Station
Haze Haze  
Wind Chill: 70°   Ceiling: 300
Heat Index: 70°   Visibility: 3mi
Dew Point: 68°   Wind: 0mph
Humidity: 94%   Direction: NA
Pressure: 30.09"   Gusts: NA
Location:  19.41°S, 42.42°W
Report Text: SBLS 221000Z 00000KT 5000 BR BKN003 BKN015 BKN070 21/20 Q1019
Loading
Personal Weather Stations






























Interactive Weather Map New forecast layout! Learn more

10-Day Weather Forecast

Advertisements
Track Severe Weather on mobile